sensor_id;sensor_type;location;lat;lon;timestamp;temperature;humidity
23719;DHT22;43322;52.230;5.702;2023-05-10T00:02:00;13.30;99.90
23719;DHT22;43322;52.230;5.702;2023-05-10T00:04:29;13.30;99.90
23719;DHT22;43322;52.230;5.702;2023-05-10T00:06:55;13.30;99.90
23719;DHT22;43322;52.230;5.702;2023-05-10T00:09:22;13.30;99.90
23719;DHT22;43322;52.230;5.702;2023-05-10T00:11:48;13.40;99.90
23719;DHT22;43322;52.230;5.702;2023-05-10T00:14:15;13.30;99.90
23719;DHT22;43322;52.230;5.702;2023-05-10T00:16:42;13.30;99.90
23719;DHT22;43322;52.230;5.702;2023-05-10T00:19:09;13.30;99.90
23719;DHT22;43322;52.230;5.702;2023-05-10T00:21:37;13.40;99.90
23719;DHT22;43322;52.230;5.702;2023-05-10T00:24:04;13.40;99.90
23719;DHT22;43322;52.230;5.702;2023-05-10T00:26:31;13.40;99.90
23719;DHT22;43322;52.230;5.702;2023-05-10T00:28:57;13.40;99.90
23719;DHT22;43322;52.230;5.702;2023-05-10T00:31:25;13.40;99.90
23719;DHT22;43322;52.230;5.702;2023-05-10T00:33:51;13.40;99.90
23719;DHT22;43322;52.230;5.702;2023-05-10T00:36:18;13.40;99.90
23719;DHT22;43322;52.230;5.702;2023-05-10T00:38:47;13.40;99.90
23719;DHT22;43322;52.230;5.702;2023-05-10T00:41:14;13.40;99.90
23719;DHT22;43322;52.230;5.702;2023-05-10T00:43:41;13.40;99.90
23719;DHT22;43322;52.230;5.702;2023-05-10T00:46:07;13.40;99.90
23719;DHT22;43322;52.230;5.702;2023-05-10T00:48:34;13.40;99.90
23719;DHT22;43322;52.230;5.702;2023-05-10T00:51:01;13.40;99.90
23719;DHT22;43322;52.230;5.702;2023-05-10T00:53:30;13.40;99.90
23719;DHT22;43322;52.230;5.702;2023-05-10T00:55:59;13.40;99.90
23719;DHT22;43322;52.230;5.702;2023-05-10T00:58:27;13.40;99.90
23719;DHT22;43322;52.230;5.702;2023-05-10T01:00:56;13.40;99.90
23719;DHT22;43322;52.230;5.702;2023-05-10T01:03:24;13.40;99.90
23719;DHT22;43322;52.230;5.702;2023-05-10T01:05:51;13.40;99.90
23719;DHT22;43322;52.230;5.702;2023-05-10T01:08:18;13.40;99.90
23719;DHT22;43322;52.230;5.702;2023-05-10T01:10:45;13.40;99.90
23719;DHT22;43322;52.230;5.702;2023-05-10T01:13:30;13.40;99.90
23719;DHT22;43322;52.230;5.702;2023-05-10T01:15:58;13.50;99.90
23719;DHT22;43322;52.230;5.702;2023-05-10T01:18:26;13.40;99.90
23719;DHT22;43322;52.230;5.702;2023-05-10T01:21:13;13.40;99.90
23719;DHT22;43322;52.230;5.702;2023-05-10T01:23:53;13.40;99.90
23719;DHT22;43322;52.230;5.702;2023-05-10T01:26:42;13.30;99.90
23719;DHT22;43322;52.230;5.702;2023-05-10T01:29:30;13.30;99.90
23719;DHT22;43322;52.230;5.702;2023-05-10T01:32:24;13.30;99.90
23719;DHT22;43322;52.230;5.702;2023-05-10T01:34:59;13.30;99.90
23719;DHT22;43322;52.230;5.702;2023-05-10T01:37:33;13.30;99.90
23719;DHT22;43322;52.230;5.702;2023-05-10T01:40:10;13.30;99.90
23719;DHT22;43322;52.230;5.702;2023-05-10T01:42:44;13.30;99.90
23719;DHT22;43322;52.230;5.702;2023-05-10T01:45:18;13.30;99.90
23719;DHT22;43322;52.230;5.702;2023-05-10T01:47:51;13.40;99.90
23719;DHT22;43322;52.230;5.702;2023-05-10T01:50:23;13.40;99.90
23719;DHT22;43322;52.230;5.702;2023-05-10T01:52:54;13.30;99.90
23719;DHT22;43322;52.230;5.702;2023-05-10T01:55:25;13.30;99.90
23719;DHT22;43322;52.230;5.702;2023-05-10T01:57:58;13.30;99.90
23719;DHT22;43322;52.230;5.702;2023-05-10T02:00:27;13.30;99.90
23719;DHT22;43322;52.230;5.702;2023-05-10T02:02:56;13.30;99.90
23719;DHT22;43322;52.230;5.702;2023-05-10T02:05:24;13.30;99.90
23719;DHT22;43322;52.230;5.702;2023-05-10T02:07:51;13.20;99.90
23719;DHT22;43322;52.230;5.702;2023-05-10T02:10:19;13.30;99.90
23719;DHT22;43322;52.230;5.702;2023-05-10T02:12:47;13.30;99.90
23719;DHT22;43322;52.230;5.702;2023-05-10T02:15:19;13.30;99.90
23719;DHT22;43322;52.230;5.702;2023-05-10T02:17:46;13.30;99.90
23719;DHT22;43322;52.230;5.702;2023-05-10T02:20:16;13.30;99.90
23719;DHT22;43322;52.230;5.702;2023-05-10T02:22:44;13.30;99.90
23719;DHT22;43322;52.230;5.702;2023-05-10T02:25:13;13.30;99.90
23719;DHT22;43322;52.230;5.702;2023-05-10T02:27:41;13.20;99.90
23719;DHT22;43322;52.230;5.702;2023-05-10T02:30:10;13.20;99.90
23719;DHT22;43322;52.230;5.702;2023-05-10T02:32:37;13.20;99.90
23719;DHT22;43322;52.230;5.702;2023-05-10T02:35:05;13.20;99.90
23719;DHT22;43322;52.230;5.702;2023-05-10T02:37:35;13.20;99.90
23719;DHT22;43322;52.230;5.702;2023-05-10T02:40:05;13.20;99.90
23719;DHT22;43322;52.230;5.702;2023-05-10T02:42:35;13.20;99.90
23719;DHT22;43322;52.230;5.702;2023-05-10T02:45:07;13.20;99.90
23719;DHT22;43322;52.230;5.702;2023-05-10T02:47:34;13.20;99.90
23719;DHT22;43322;52.230;5.702;2023-05-10T02:50:01;13.20;99.90
23719;DHT22;43322;52.230;5.702;2023-05-10T02:52:30;13.20;99.90
23719;DHT22;43322;52.230;5.702;2023-05-10T02:55:05;13.20;99.90
23719;DHT22;43322;52.230;5.702;2023-05-10T02:57:33;13.20;99.90
23719;DHT22;43322;52.230;5.702;2023-05-10T03:00:00;13.10;99.90
23719;DHT22;43322;52.230;5.702;2023-05-10T03:02:28;13.20;99.90
23719;DHT22;43322;52.230;5.702;2023-05-10T03:04:56;13.10;99.90
23719;DHT22;43322;52.230;5.702;2023-05-10T03:07:23;13.20;99.90
23719;DHT22;43322;52.230;5.702;2023-05-10T03:09:50;13.20;99.90
23719;DHT22;43322;52.230;5.702;2023-05-10T03:12:26;13.20;99.90
23719;DHT22;43322;52.230;5.702;2023-05-10T03:15:00;13.20;99.90
23719;DHT22;43322;52.230;5.702;2023-05-10T03:17:30;13.20;99.90
23719;DHT22;43322;52.230;5.702;2023-05-10T03:20:03;13.20;99.90
23719;DHT22;43322;52.230;5.702;2023-05-10T03:22:32;13.20;99.90
23719;DHT22;43322;52.230;5.702;2023-05-10T03:25:05;13.10;99.90
23719;DHT22;43322;52.230;5.702;2023-05-10T03:27:34;13.10;99.90
23719;DHT22;43322;52.230;5.702;2023-05-10T03:30:02;13.10;99.90
23719;DHT22;43322;52.230;5.702;2023-05-10T03:32:29;13.20;99.90
23719;DHT22;43322;52.230;5.702;2023-05-10T03:34:57;13.10;99.90
23719;DHT22;43322;52.230;5.702;2023-05-10T03:37:23;13.10;99.90
23719;DHT22;43322;52.230;5.702;2023-05-10T03:39:50;13.20;99.90
23719;DHT22;43322;52.230;5.702;2023-05-10T03:42:17;13.20;99.90
23719;DHT22;43322;52.230;5.702;2023-05-10T03:44:45;13.10;99.90
23719;DHT22;43322;52.230;5.702;2023-05-10T03:47:12;13.20;99.90
23719;DHT22;43322;52.230;5.702;2023-05-10T03:49:38;13.10;99.90
23719;DHT22;43322;52.230;5.702;2023-05-10T03:52:05;13.10;99.90
23719;DHT22;43322;52.230;5.702;2023-05-10T03:54:32;13.10;99.90
23719;DHT22;43322;52.230;5.702;2023-05-10T03:56:58;13.00;99.90
23719;DHT22;43322;52.230;5.702;2023-05-10T03:59:26;12.90;99.90
23719;DHT22;43322;52.230;5.702;2023-05-10T04:01:54;12.90;99.90
23719;DHT22;43322;52.230;5.702;2023-05-10T04:04:21;12.90;99.90
23719;DHT22;43322;52.230;5.702;2023-05-10T04:06:48;12.90;99.90
23719;DHT22;43322;52.230;5.702;2023-05-10T04:09:15;12.90;99.90
23719;DHT22;43322;52.230;5.702;2023-05-10T04:11:42;13.00;99.90
23719;DHT22;43322;52.230;5.702;2023-05-10T04:14:09;13.00;99.90
23719;DHT22;43322;52.230;5.702;2023-05-10T04:16:36;12.90;99.90
23719;DHT22;43322;52.230;5.702;2023-05-10T04:19:04;12.90;99.90
23719;DHT22;43322;52.230;5.702;2023-05-10T04:21:31;12.90;99.90
23719;DHT22;43322;52.230;5.702;2023-05-10T04:23:57;12.90;99.90
23719;DHT22;43322;52.230;5.702;2023-05-10T04:26:24;12.90;99.90
23719;DHT22;43322;52.230;5.702;2023-05-10T04:28:51;12.90;99.90
23719;DHT22;43322;52.230;5.702;2023-05-10T04:31:18;12.90;99.90
23719;DHT22;43322;52.230;5.702;2023-05-10T04:33:45;12.80;99.90
23719;DHT22;43322;52.230;5.702;2023-05-10T04:36:13;12.90;99.90
23719;DHT22;43322;52.230;5.702;2023-05-10T04:38:39;12.80;99.90
23719;DHT22;43322;52.230;5.702;2023-05-10T04:41:07;12.80;99.90
23719;DHT22;43322;52.230;5.702;2023-05-10T04:43:34;12.80;99.90
23719;DHT22;43322;52.230;5.702;2023-05-10T04:46:01;12.80;99.90
23719;DHT22;43322;52.230;5.702;2023-05-10T04:48:27;12.80;99.90
23719;DHT22;43322;52.230;5.702;2023-05-10T04:50:54;12.80;99.90
23719;DHT22;43322;52.230;5.702;2023-05-10T04:53:23;12.80;99.90
23719;DHT22;43322;52.230;5.702;2023-05-10T04:55:49;12.80;99.90
23719;DHT22;43322;52.230;5.702;2023-05-10T04:58:16;12.80;99.90
23719;DHT22;43322;52.230;5.702;2023-05-10T05:00:43;12.90;99.90
23719;DHT22;43322;52.230;5.702;2023-05-10T05:03:10;12.80;99.90
23719;DHT22;43322;52.230;5.702;2023-05-10T05:05:36;12.80;99.90
23719;DHT22;43322;52.230;5.702;2023-05-10T05:08:03;12.80;99.90
23719;DHT22;43322;52.230;5.702;2023-05-10T05:10:31;12.80;99.90
23719;DHT22;43322;52.230;5.702;2023-05-10T05:12:58;12.80;99.90
23719;DHT22;43322;52.230;5.702;2023-05-10T05:15:25;12.80;99.90
23719;DHT22;43322;52.230;5.702;2023-05-10T05:17:51;12.80;99.90
23719;DHT22;43322;52.230;5.702;2023-05-10T05:20:18;12.80;99.90
23719;DHT22;43322;52.230;5.702;2023-05-10T05:22:45;12.80;99.90
23719;DHT22;43322;52.230;5.702;2023-05-10T05:25:12;12.80;99.90
23719;DHT22;43322;52.230;5.702;2023-05-10T05:27:40;12.80;99.90
23719;DHT22;43322;52.230;5.702;2023-05-10T05:30:07;12.80;99.90
23719;DHT22;43322;52.230;5.702;2023-05-10T05:32:34;12.80;99.90
23719;DHT22;43322;52.230;5.702;2023-05-10T05:35:01;12.70;99.90
23719;DHT22;43322;52.230;5.702;2023-05-10T05:37:27;12.80;99.90
23719;DHT22;43322;52.230;5.702;2023-05-10T05:39:54;12.70;99.90
23719;DHT22;43322;52.230;5.702;2023-05-10T05:42:21;12.80;99.90
23719;DHT22;43322;52.230;5.702;2023-05-10T05:44:49;12.70;99.90
23719;DHT22;43322;52.230;5.702;2023-05-10T05:47:15;12.70;99.90
23719;DHT22;43322;52.230;5.702;2023-05-10T05:49:42;12.70;99.90
23719;DHT22;43322;52.230;5.702;2023-05-10T05:52:11;12.70;99.90
23719;DHT22;43322;52.230;5.702;2023-05-10T05:54:38;12.70;99.90
23719;DHT22;43322;52.230;5.702;2023-05-10T05:57:04;12.70;99.90
23719;DHT22;43322;52.230;5.702;2023-05-10T05:59:31;12.70;99.90
23719;DHT22;43322;52.230;5.702;2023-05-10T06:01:59;12.60;99.90
23719;DHT22;43322;52.230;5.702;2023-05-10T06:04:26;12.60;99.90
23719;DHT22;43322;52.230;5.702;2023-05-10T06:06:53;12.60;99.90
23719;DHT22;43322;52.230;5.702;2023-05-10T06:09:19;12.60;99.90
23719;DHT22;43322;52.230;5.702;2023-05-10T06:11:46;12.60;99.90
23719;DHT22;43322;52.230;5.702;2023-05-10T06:14:13;12.60;99.90
23719;DHT22;43322;52.230;5.702;2023-05-10T06:16:40;12.70;99.90
23719;DHT22;43322;52.230;5.702;2023-05-10T06:19:08;12.70;99.90
23719;DHT22;43322;52.230;5.702;2023-05-10T06:21:35;12.70;99.90
23719;DHT22;43322;52.230;5.702;2023-05-10T06:24:01;12.70;99.90
23719;DHT22;43322;52.230;5.702;2023-05-10T06:26:28;12.70;99.90
23719;DHT22;43322;52.230;5.702;2023-05-10T06:28:55;12.70;99.90
23719;DHT22;43322;52.230;5.702;2023-05-10T06:31:22;12.60;99.90
23719;DHT22;43322;52.230;5.702;2023-05-10T06:33:48;12.70;99.90
23719;DHT22;43322;52.230;5.702;2023-05-10T06:36:17;12.60;99.90
23719;DHT22;43322;52.230;5.702;2023-05-10T06:38:44;12.60;99.90
23719;DHT22;43322;52.230;5.702;2023-05-10T06:41:10;12.70;99.90
23719;DHT22;43322;52.230;5.702;2023-05-10T06:43:37;12.60;99.90
23719;DHT22;43322;52.230;5.702;2023-05-10T06:46:06;12.60;99.90
23719;DHT22;43322;52.230;5.702;2023-05-10T06:48:33;12.60;99.90
23719;DHT22;43322;52.230;5.702;2023-05-10T06:51:00;12.60;99.90
23719;DHT22;43322;52.230;5.702;2023-05-10T06:53:28;12.60;99.90
23719;DHT22;43322;52.230;5.702;2023-05-10T06:55:55;12.60;99.90
23719;DHT22;43322;52.230;5.702;2023-05-10T06:58:21;12.60;99.90
23719;DHT22;43322;52.230;5.702;2023-05-10T07:00:48;12.60;99.90
23719;DHT22;43322;52.230;5.702;2023-05-10T07:03:15;12.70;99.90
23719;DHT22;43322;52.230;5.702;2023-05-10T07:05:42;12.70;99.90
23719;DHT22;43322;52.230;5.702;2023-05-10T07:08:09;12.80;99.90
23719;DHT22;43322;52.230;5.702;2023-05-10T07:10:37;12.80;99.90
23719;DHT22;43322;52.230;5.702;2023-05-10T07:13:03;12.90;99.90
23719;DHT22;43322;52.230;5.702;2023-05-10T07:15:30;12.70;99.90
23719;DHT22;43322;52.230;5.702;2023-05-10T07:17:57;12.80;99.90
23719;DHT22;43322;52.230;5.702;2023-05-10T07:20:23;12.80;99.90
23719;DHT22;43322;52.230;5.702;2023-05-10T07:22:50;12.90;99.90
23719;DHT22;43322;52.230;5.702;2023-05-10T07:25:17;13.00;99.90
23719;DHT22;43322;52.230;5.702;2023-05-10T07:27:45;13.10;99.90
23719;DHT22;43322;52.230;5.702;2023-05-10T07:30:14;13.20;99.90
23719;DHT22;43322;52.230;5.702;2023-05-10T07:32:41;13.30;99.90
23719;DHT22;43322;52.230;5.702;2023-05-10T07:35:08;13.30;99.90
23719;DHT22;43322;52.230;5.702;2023-05-10T07:37:35;13.30;99.90
23719;DHT22;43322;52.230;5.702;2023-05-10T07:40:01;13.20;99.90
23719;DHT22;43322;52.230;5.702;2023-05-10T07:42:29;13.20;99.90
23719;DHT22;43322;52.230;5.702;2023-05-10T07:44:57;13.10;99.90
23719;DHT22;43322;52.230;5.702;2023-05-10T07:47:23;13.10;99.90
23719;DHT22;43322;52.230;5.702;2023-05-10T07:49:50;13.10;99.90
23719;DHT22;43322;52.230;5.702;2023-05-10T07:52:17;13.10;99.90
23719;DHT22;43322;52.230;5.702;2023-05-10T07:54:43;13.10;99.90
23719;DHT22;43322;52.230;5.702;2023-05-10T07:57:11;13.10;99.90
23719;DHT22;43322;52.230;5.702;2023-05-10T07:59:40;13.10;99.90
23719;DHT22;43322;52.230;5.702;2023-05-10T08:02:08;13.20;99.90
23719;DHT22;43322;52.230;5.702;2023-05-10T08:04:34;13.30;99.90
23719;DHT22;43322;52.230;5.702;2023-05-10T08:07:01;13.40;99.90
23719;DHT22;43322;52.230;5.702;2023-05-10T08:09:28;13.40;99.90
23719;DHT22;43322;52.230;5.702;2023-05-10T08:11:54;13.30;99.90
23719;DHT22;43322;52.230;5.702;2023-05-10T08:14:21;13.20;99.90
23719;DHT22;43322;52.230;5.702;2023-05-10T08:16:48;13.10;99.90
23719;DHT22;43322;52.230;5.702;2023-05-10T08:19:16;13.10;99.90
23719;DHT22;43322;52.230;5.702;2023-05-10T08:21:44;13.20;99.90
23719;DHT22;43322;52.230;5.702;2023-05-10T08:24:11;13.30;99.90
23719;DHT22;43322;52.230;5.702;2023-05-10T08:26:38;13.30;99.90
23719;DHT22;43322;52.230;5.702;2023-05-10T08:29:05;13.30;99.90
23719;DHT22;43322;52.230;5.702;2023-05-10T08:31:32;13.30;99.90
23719;DHT22;43322;52.230;5.702;2023-05-10T08:33:58;13.40;99.90
23719;DHT22;43322;52.230;5.702;2023-05-10T08:36:27;13.40;99.90
23719;DHT22;43322;52.230;5.702;2023-05-10T08:38:54;13.40;99.90
23719;DHT22;43322;52.230;5.702;2023-05-10T08:41:21;13.40;99.90
23719;DHT22;43322;52.230;5.702;2023-05-10T08:43:50;13.40;99.90
23719;DHT22;43322;52.230;5.702;2023-05-10T08:46:18;13.40;99.90
23719;DHT22;43322;52.230;5.702;2023-05-10T08:48:46;13.40;99.90
23719;DHT22;43322;52.230;5.702;2023-05-10T08:51:14;13.50;99.90
23719;DHT22;43322;52.230;5.702;2023-05-10T08:53:43;13.50;99.90
23719;DHT22;43322;52.230;5.702;2023-05-10T08:56:11;13.60;99.90
23719;DHT22;43322;52.230;5.702;2023-05-10T08:58:38;13.50;99.90
23719;DHT22;43322;52.230;5.702;2023-05-10T09:01:05;13.50;99.90
23719;DHT22;43322;52.230;5.702;2023-05-10T09:03:32;13.40;99.90
23719;DHT22;43322;52.230;5.702;2023-05-10T09:05:58;13.50;99.90
23719;DHT22;43322;52.230;5.702;2023-05-10T09:08:26;13.50;99.90
23719;DHT22;43322;52.230;5.702;2023-05-10T09:10:54;13.60;99.90
23719;DHT22;43322;52.230;5.702;2023-05-10T09:13:22;13.80;99.90
23719;DHT22;43322;52.230;5.702;2023-05-10T09:15:49;13.90;99.90
23719;DHT22;43322;52.230;5.702;2023-05-10T09:18:17;14.20;99.90
23719;DHT22;43322;52.230;5.702;2023-05-10T09:20:43;14.20;99.90
23719;DHT22;43322;52.230;5.702;2023-05-10T09:23:10;14.40;99.90
23719;DHT22;43322;52.230;5.702;2023-05-10T09:25:37;14.50;99.90
23719;DHT22;43322;52.230;5.702;2023-05-10T09:28:07;14.60;99.90
23719;DHT22;43322;52.230;5.702;2023-05-10T09:30:35;14.50;99.90
23719;DHT22;43322;52.230;5.702;2023-05-10T09:33:02;14.50;99.90
23719;DHT22;43322;52.230;5.702;2023-05-10T09:35:30;14.40;99.90
23719;DHT22;43322;52.230;5.702;2023-05-10T09:38:00;14.20;99.90
23719;DHT22;43322;52.230;5.702;2023-05-10T09:40:28;14.20;99.90
23719;DHT22;43322;52.230;5.702;2023-05-10T09:42:56;14.10;99.90
23719;DHT22;43322;52.230;5.702;2023-05-10T09:45:26;14.30;99.90
23719;DHT22;43322;52.230;5.702;2023-05-10T09:47:53;14.30;99.90
23719;DHT22;43322;52.230;5.702;2023-05-10T09:50:19;14.40;99.90
23719;DHT22;43322;52.230;5.702;2023-05-10T09:52:48;14.30;99.90
23719;DHT22;43322;52.230;5.702;2023-05-10T09:55:16;14.30;99.90
23719;DHT22;43322;52.230;5.702;2023-05-10T09:57:44;14.50;99.90
23719;DHT22;43322;52.230;5.702;2023-05-10T10:00:17;14.70;99.90
23719;DHT22;43322;52.230;5.702;2023-05-10T10:02:47;14.80;99.90
23719;DHT22;43322;52.230;5.702;2023-05-10T10:05:14;15.00;99.90
23719;DHT22;43322;52.230;5.702;2023-05-10T10:07:41;15.10;99.90
23719;DHT22;43322;52.230;5.702;2023-05-10T10:10:08;15.10;99.90
23719;DHT22;43322;52.230;5.702;2023-05-10T10:12:39;15.20;99.90
23719;DHT22;43322;52.230;5.702;2023-05-10T10:15:07;15.20;99.90
23719;DHT22;43322;52.230;5.702;2023-05-10T10:17:36;15.10;99.90
23719;DHT22;43322;52.230;5.702;2023-05-10T10:20:06;14.90;99.90
23719;DHT22;43322;52.230;5.702;2023-05-10T10:22:33;14.70;99.90
23719;DHT22;43322;52.230;5.702;2023-05-10T10:25:00;14.80;99.90
23719;DHT22;43322;52.230;5.702;2023-05-10T10:27:35;15.00;99.90
23719;DHT22;43322;52.230;5.702;2023-05-10T10:30:10;15.10;99.90
23719;DHT22;43322;52.230;5.702;2023-05-10T10:32:49;15.20;99.90
23719;DHT22;43322;52.230;5.702;2023-05-10T10:35:23;15.30;99.90
23719;DHT22;43322;52.230;5.702;2023-05-10T10:37:50;15.40;99.90
23719;DHT22;43322;52.230;5.702;2023-05-10T10:40:25;15.60;99.90
23719;DHT22;43322;52.230;5.702;2023-05-10T10:42:52;15.80;99.90
23719;DHT22;43322;52.230;5.702;2023-05-10T10:45:20;15.80;99.90
23719;DHT22;43322;52.230;5.702;2023-05-10T10:47:47;16.00;99.90
23719;DHT22;43322;52.230;5.702;2023-05-10T10:50:15;16.10;99.90
23719;DHT22;43322;52.230;5.702;2023-05-10T10:52:44;16.10;99.90
23719;DHT22;43322;52.230;5.702;2023-05-10T10:55:12;16.20;99.90
23719;DHT22;43322;52.230;5.702;2023-05-10T10:57:47;16.20;99.90
23719;DHT22;43322;52.230;5.702;2023-05-10T11:00:23;16.20;99.90
23719;DHT22;43322;52.230;5.702;2023-05-10T11:02:52;16.10;99.90
23719;DHT22;43322;52.230;5.702;2023-05-10T11:05:43;16.10;99.90
23719;DHT22;43322;52.230;5.702;2023-05-10T11:08:13;15.90;99.90
23719;DHT22;43322;52.230;5.702;2023-05-10T11:10:50;15.90;99.90
23719;DHT22;43322;52.230;5.702;2023-05-10T11:13:27;16.00;99.90
23719;DHT22;43322;52.230;5.702;2023-05-10T11:15:56;16.00;99.90
23719;DHT22;43322;52.230;5.702;2023-05-10T11:18:25;16.00;99.90
23719;DHT22;43322;52.230;5.702;2023-05-10T11:20:55;16.10;99.90
23719;DHT22;43322;52.230;5.702;2023-05-10T11:23:30;16.00;99.90
23719;DHT22;43322;52.230;5.702;2023-05-10T11:25:58;16.10;99.90
23719;DHT22;43322;52.230;5.702;2023-05-10T11:28:26;16.00;99.90
23719;DHT22;43322;52.230;5.702;2023-05-10T11:30:54;15.90;99.90
23719;DHT22;43322;52.230;5.702;2023-05-10T11:33:21;15.70;99.90
23719;DHT22;43322;52.230;5.702;2023-05-10T11:35:48;15.90;99.90
23719;DHT22;43322;52.230;5.702;2023-05-10T11:38:14;15.80;99.90
23719;DHT22;43322;52.230;5.702;2023-05-10T11:40:43;15.80;99.90
23719;DHT22;43322;52.230;5.702;2023-05-10T11:43:10;16.00;99.90
23719;DHT22;43322;52.230;5.702;2023-05-10T11:45:37;16.10;99.90
23719;DHT22;43322;52.230;5.702;2023-05-10T11:48:04;16.00;99.90
23719;DHT22;43322;52.230;5.702;2023-05-10T11:50:31;16.10;99.90
23719;DHT22;43322;52.230;5.702;2023-05-10T11:52:58;15.90;99.90
23719;DHT22;43322;52.230;5.702;2023-05-10T11:55:25;15.90;99.90
23719;DHT22;43322;52.230;5.702;2023-05-10T11:57:53;16.00;99.90
23719;DHT22;43322;52.230;5.702;2023-05-10T12:00:21;15.90;99.90
23719;DHT22;43322;52.230;5.702;2023-05-10T12:02:48;15.90;99.90
23719;DHT22;43322;52.230;5.702;2023-05-10T12:05:15;15.90;99.90
23719;DHT22;43322;52.230;5.702;2023-05-10T12:07:42;16.10;99.90
23719;DHT22;43322;52.230;5.702;2023-05-10T12:10:10;16.30;99.90
23719;DHT22;43322;52.230;5.702;2023-05-10T12:12:40;16.30;99.90
23719;DHT22;43322;52.230;5.702;2023-05-10T12:15:12;16.40;99.90
23719;DHT22;43322;52.230;5.702;2023-05-10T12:17:44;16.30;99.90
23719;DHT22;43322;52.230;5.702;2023-05-10T12:20:17;16.40;99.90
23719;DHT22;43322;52.230;5.702;2023-05-10T12:22:49;16.60;99.90
23719;DHT22;43322;52.230;5.702;2023-05-10T12:25:16;17.30;99.90
23719;DHT22;43322;52.230;5.702;2023-05-10T12:27:48;17.00;99.90
23719;DHT22;43322;52.230;5.702;2023-05-10T12:30:21;17.20;99.90
23719;DHT22;43322;52.230;5.702;2023-05-10T12:32:48;17.20;99.90
23719;DHT22;43322;52.230;5.702;2023-05-10T12:35:15;17.10;99.90
23719;DHT22;43322;52.230;5.702;2023-05-10T12:37:42;16.90;99.90
23719;DHT22;43322;52.230;5.702;2023-05-10T12:40:10;16.90;99.90
23719;DHT22;43322;52.230;5.702;2023-05-10T12:42:38;17.00;99.90
23719;DHT22;43322;52.230;5.702;2023-05-10T12:45:06;16.90;99.90
23719;DHT22;43322;52.230;5.702;2023-05-10T12:47:35;16.90;99.90
23719;DHT22;43322;52.230;5.702;2023-05-10T12:50:02;17.00;99.90
23719;DHT22;43322;52.230;5.702;2023-05-10T12:52:30;17.30;99.90
23719;DHT22;43322;52.230;5.702;2023-05-10T12:54:58;17.50;99.90
23719;DHT22;43322;52.230;5.702;2023-05-10T12:57:25;17.70;99.90
23719;DHT22;43322;52.230;5.702;2023-05-10T12:59:52;17.80;99.90
23719;DHT22;43322;52.230;5.702;2023-05-10T13:02:19;17.80;99.90
23719;DHT22;43322;52.230;5.702;2023-05-10T13:04:48;17.60;99.90
23719;DHT22;43322;52.230;5.702;2023-05-10T13:07:14;17.50;99.90
23719;DHT22;43322;52.230;5.702;2023-05-10T13:09:41;17.30;99.90
23719;DHT22;43322;52.230;5.702;2023-05-10T13:12:08;17.10;99.90
23719;DHT22;43322;52.230;5.702;2023-05-10T13:14:35;16.90;99.90
23719;DHT22;43322;52.230;5.702;2023-05-10T13:17:02;16.70;99.90
23719;DHT22;43322;52.230;5.702;2023-05-10T13:19:28;16.70;99.90
23719;DHT22;43322;52.230;5.702;2023-05-10T13:21:56;16.60;99.90
23719;DHT22;43322;52.230;5.702;2023-05-10T13:24:23;16.70;99.90
23719;DHT22;43322;52.230;5.702;2023-05-10T13:26:50;16.80;99.90
23719;DHT22;43322;52.230;5.702;2023-05-10T13:29:16;16.90;99.90
23719;DHT22;43322;52.230;5.702;2023-05-10T13:31:44;16.90;99.90
23719;DHT22;43322;52.230;5.702;2023-05-10T13:34:11;17.10;99.90
23719;DHT22;43322;52.230;5.702;2023-05-10T13:36:37;17.20;99.90
23719;DHT22;43322;52.230;5.702;2023-05-10T13:39:06;17.30;99.90
23719;DHT22;43322;52.230;5.702;2023-05-10T13:41:32;17.70;99.90
23719;DHT22;43322;52.230;5.702;2023-05-10T13:43:59;17.50;99.90
23719;DHT22;43322;52.230;5.702;2023-05-10T13:46:26;17.70;99.90
23719;DHT22;43322;52.230;5.702;2023-05-10T13:48:52;17.90;99.90
23719;DHT22;43322;52.230;5.702;2023-05-10T13:51:19;18.20;99.90
23719;DHT22;43322;52.230;5.702;2023-05-10T13:53:46;18.50;99.90
23719;DHT22;43322;52.230;5.702;2023-05-10T13:56:14;18.60;99.90
23719;DHT22;43322;52.230;5.702;2023-05-10T13:58:41;18.70;99.90
23719;DHT22;43322;52.230;5.702;2023-05-10T14:01:08;18.70;99.90
23719;DHT22;43322;52.230;5.702;2023-05-10T14:03:35;18.60;99.90
23719;DHT22;43322;52.230;5.702;2023-05-10T14:06:01;18.40;99.90
23719;DHT22;43322;52.230;5.702;2023-05-10T14:08:28;18.00;99.90
23719;DHT22;43322;52.230;5.702;2023-05-10T14:10:55;17.80;99.90
23719;DHT22;43322;52.230;5.702;2023-05-10T14:13:23;17.60;99.90
23719;DHT22;43322;52.230;5.702;2023-05-10T14:15:52;17.40;99.90
23719;DHT22;43322;52.230;5.702;2023-05-10T14:18:19;17.20;99.90
23719;DHT22;43322;52.230;5.702;2023-05-10T14:20:45;17.20;99.90
23719;DHT22;43322;52.230;5.702;2023-05-10T14:23:12;17.40;99.90
23719;DHT22;43322;52.230;5.702;2023-05-10T14:25:40;17.30;99.90
23719;DHT22;43322;52.230;5.702;2023-05-10T14:28:06;17.20;99.90
23719;DHT22;43322;52.230;5.702;2023-05-10T14:30:34;17.10;99.90
23719;DHT22;43322;52.230;5.702;2023-05-10T14:33:02;17.20;99.90
23719;DHT22;43322;52.230;5.702;2023-05-10T14:35:29;17.10;99.90
23719;DHT22;43322;52.230;5.702;2023-05-10T14:37:57;16.90;99.90
23719;DHT22;43322;52.230;5.702;2023-05-10T14:40:24;16.90;99.90
23719;DHT22;43322;52.230;5.702;2023-05-10T14:42:51;16.80;99.90
23719;DHT22;43322;52.230;5.702;2023-05-10T14:45:18;16.50;99.90
23719;DHT22;43322;52.230;5.702;2023-05-10T14:47:47;16.40;99.90
23719;DHT22;43322;52.230;5.702;2023-05-10T14:50:13;16.20;99.90
23719;DHT22;43322;52.230;5.702;2023-05-10T14:52:40;16.10;99.90
23719;DHT22;43322;52.230;5.702;2023-05-10T14:55:08;16.00;99.90
23719;DHT22;43322;52.230;5.702;2023-05-10T14:57:35;16.00;99.90
23719;DHT22;43322;52.230;5.702;2023-05-10T15:00:01;16.00;99.90
23719;DHT22;43322;52.230;5.702;2023-05-10T15:02:29;15.70;99.90
23719;DHT22;43322;52.230;5.702;2023-05-10T15:04:57;15.70;99.90
23719;DHT22;43322;52.230;5.702;2023-05-10T15:07:23;15.70;99.90
23719;DHT22;43322;52.230;5.702;2023-05-10T15:09:50;15.60;99.90
23719;DHT22;43322;52.230;5.702;2023-05-10T15:12:17;15.60;99.90
23719;DHT22;43322;52.230;5.702;2023-05-10T15:14:44;15.50;99.90
23719;DHT22;43322;52.230;5.702;2023-05-10T15:17:11;15.50;99.90
23719;DHT22;43322;52.230;5.702;2023-05-10T15:19:37;15.50;99.90
23719;DHT22;43322;52.230;5.702;2023-05-10T15:22:05;15.50;99.90
23719;DHT22;43322;52.230;5.702;2023-05-10T15:24:32;15.40;99.90
23719;DHT22;43322;52.230;5.702;2023-05-10T15:26:59;15.50;99.90
23719;DHT22;43322;52.230;5.702;2023-05-10T15:29:26;15.50;99.90
23719;DHT22;43322;52.230;5.702;2023-05-10T15:31:53;15.50;99.90
23719;DHT22;43322;52.230;5.702;2023-05-10T15:34:19;15.50;99.90
23719;DHT22;43322;52.230;5.702;2023-05-10T15:36:46;15.50;99.90